sensor_id;sensor_type;location;lat;lon;timestamp;pressure;altitude;pressure_sealevel;temperature;humidity
70103;BME280;57470;50.034;15.256;2023-05-02T00:02:16;99211.09;;;13.50;84.66
70103;BME280;57470;50.034;15.256;2023-05-02T00:04:42;99203.19;;;13.49;84.76
70103;BME280;57470;50.034;15.256;2023-05-02T00:07:07;99207.88;;;13.57;84.70
70103;BME280;57470;50.034;15.256;2023-05-02T00:09:33;99208.97;;;13.54;84.42
70103;BME280;57470;50.034;15.256;2023-05-02T00:11:58;99208.00;;;13.55;85.14
70103;BME280;57470;50.034;15.256;2023-05-02T00:14:24;99211.22;;;13.49;85.21
70103;BME280;57470;50.034;15.256;2023-05-02T00:16:49;99210.56;;;13.57;85.45
70103;BME280;57470;50.034;15.256;2023-05-02T00:19:15;99206.91;;;13.58;84.93
70103;BME280;57470;50.034;15.256;2023-05-02T00:21:40;99211.53;;;13.56;85.84
70103;BME280;57470;50.034;15.256;2023-05-02T00:24:05;99207.75;;;13.58;85.65
70103;BME280;57470;50.034;15.256;2023-05-02T00:26:31;99216.81;;;13.67;85.94
70103;BME280;57470;50.034;15.256;2023-05-02T00:28:56;99210.03;;;13.63;86.54
70103;BME280;57470;50.034;15.256;2023-05-02T00:31:22;99213.41;;;13.65;85.98
70103;BME280;57470;50.034;15.256;2023-05-02T00:33:48;99217.19;;;13.62;86.39
70103;BME280;57470;50.034;15.256;2023-05-02T00:36:14;99215.56;;;13.29;87.96
70103;BME280;57470;50.034;15.256;2023-05-02T00:38:40;99211.09;;;13.50;87.17
70103;BME280;57470;50.034;15.256;2023-05-02T00:41:05;99216.03;;;13.55;86.50
70103;BME280;57470;50.034;15.256;2023-05-02T00:43:31;99219.28;;;13.59;86.33
70103;BME280;57470;50.034;15.256;2023-05-02T00:45:57;99221.69;;;13.62;87.04
70103;BME280;57470;50.034;15.256;2023-05-02T00:48:24;99223.50;;;13.61;86.47
70103;BME280;57470;50.034;15.256;2023-05-02T00:50:49;99227.75;;;13.64;87.02
70103;BME280;57470;50.034;15.256;2023-05-02T00:53:15;99236.63;;;13.64;86.64
70103;BME280;57470;50.034;15.256;2023-05-02T00:55:40;99223.25;;;13.64;86.55
70103;BME280;57470;50.034;15.256;2023-05-02T00:58:15;99228.53;;;13.55;87.06
70103;BME280;57470;50.034;15.256;2023-05-02T01:14:13;99238.44;;;13.64;86.58
70103;BME280;57470;50.034;15.256;2023-05-02T01:16:40;99243.19;;;13.39;87.73
70103;BME280;57470;50.034;15.256;2023-05-02T01:19:12;99245.03;;;13.60;86.65
70103;BME280;57470;50.034;15.256;2023-05-02T01:21:42;99240.34;;;13.73;86.03
70103;BME280;57470;50.034;15.256;2023-05-02T01:24:16;99244.78;;;13.83;85.40
70103;BME280;57470;50.034;15.256;2023-05-02T01:26:54;99247.13;;;13.77;86.34
70103;BME280;57470;50.034;15.256;2023-05-02T01:29:23;99246.13;;;13.78;86.11
70103;BME280;57470;50.034;15.256;2023-05-02T01:31:53;99246.72;;;13.81;85.61
70103;BME280;57470;50.034;15.256;2023-05-02T01:34:20;99250.31;;;13.71;85.08
70103;BME280;57470;50.034;15.256;2023-05-02T01:36:49;99252.84;;;13.72;85.67
70103;BME280;57470;50.034;15.256;2023-05-02T01:39:19;99253.63;;;13.84;84.78
70103;BME280;57470;50.034;15.256;2023-05-02T01:41:47;99258.19;;;13.93;84.36
70103;BME280;57470;50.034;15.256;2023-05-02T01:44:14;99260.34;;;13.99;84.27
70103;BME280;57470;50.034;15.256;2023-05-02T01:46:42;99260.09;;;14.02;84.35
70103;BME280;57470;50.034;15.256;2023-05-02T01:49:08;99257.28;;;14.04;84.16
70103;BME280;57470;50.034;15.256;2023-05-02T01:51:39;99263.41;;;13.95;86.04
70103;BME280;57470;50.034;15.256;2023-05-02T01:54:07;99257.22;;;13.94;85.86
70103;BME280;57470;50.034;15.256;2023-05-02T01:56:36;99257.72;;;13.88;85.69
70103;BME280;57470;50.034;15.256;2023-05-02T01:59:07;99262.03;;;14.00;85.11
70103;BME280;57470;50.034;15.256;2023-05-02T02:01:34;99269.09;;;14.01;85.31
70103;BME280;57470;50.034;15.256;2023-05-02T02:04:00;99260.53;;;14.07;84.72
70103;BME280;57470;50.034;15.256;2023-05-02T02:06:26;99259.09;;;14.03;84.21
70103;BME280;57470;50.034;15.256;2023-05-02T02:08:53;99256.94;;;13.97;85.54
70103;BME280;57470;50.034;15.256;2023-05-02T02:11:35;99261.38;;;14.08;84.63
70103;BME280;57470;50.034;15.256;2023-05-02T02:14:06;99258.38;;;14.01;84.54
70103;BME280;57470;50.034;15.256;2023-05-02T02:16:40;99267.63;;;13.97;84.29
70103;BME280;57470;50.034;15.256;2023-05-02T02:19:12;99274.13;;;13.95;84.50
70103;BME280;57470;50.034;15.256;2023-05-02T02:21:41;99269.63;;;13.95;85.12
70103;BME280;57470;50.034;15.256;2023-05-02T02:24:09;99268.28;;;13.89;85.05
70103;BME280;57470;50.034;15.256;2023-05-02T02:26:37;99269.88;;;13.92;85.20
70103;BME280;57470;50.034;15.256;2023-05-02T02:29:04;99269.63;;;13.95;85.28
70103;BME280;57470;50.034;15.256;2023-05-02T02:31:33;99265.69;;;13.99;84.93
70103;BME280;57470;50.034;15.256;2023-05-02T02:34:01;99270.78;;;14.02;84.68
70103;BME280;57470;50.034;15.256;2023-05-02T02:36:35;99275.09;;;13.94;85.00
70103;BME280;57470;50.034;15.256;2023-05-02T02:39:31;99282.38;;;14.12;84.19
70103;BME280;57470;50.034;15.256;2023-05-02T02:42:17;99284.16;;;14.02;85.62
70103;BME280;57470;50.034;15.256;2023-05-02T02:47:49;99293.13;;;13.80;86.84
70103;BME280;57470;50.034;15.256;2023-05-02T02:50:42;99299.00;;;13.74;86.92
70103;BME280;57470;50.034;15.256;2023-05-02T02:53:18;99299.00;;;13.74;86.39
70103;BME280;57470;50.034;15.256;2023-05-02T03:01:14;99301.88;;;13.82;86.16
70103;BME280;57470;50.034;15.256;2023-05-02T03:03:47;99305.66;;;13.80;86.21
70103;BME280;57470;50.034;15.256;2023-05-02T03:06:14;99297.84;;;13.67;86.04
70103;BME280;57470;50.034;15.256;2023-05-02T03:08:40;99308.06;;;13.62;86.55
70103;BME280;57470;50.034;15.256;2023-05-02T03:11:06;99311.91;;;13.69;86.08
70103;BME280;57470;50.034;15.256;2023-05-02T03:13:32;99304.94;;;13.78;85.95
70103;BME280;57470;50.034;15.256;2023-05-02T03:19:04;99322.09;;;13.75;84.90
70103;BME280;57470;50.034;15.256;2023-05-02T03:21:31;99320.75;;;13.70;85.40
70103;BME280;57470;50.034;15.256;2023-05-02T03:24:01;99315.91;;;13.75;85.52
70103;BME280;57470;50.034;15.256;2023-05-02T03:26:27;99317.97;;;13.71;85.44
70103;BME280;57470;50.034;15.256;2023-05-02T03:28:53;99325.97;;;13.50;85.77
70103;BME280;57470;50.034;15.256;2023-05-02T03:31:19;99324.47;;;13.58;85.51
70103;BME280;57470;50.034;15.256;2023-05-02T03:33:44;99322.53;;;13.60;85.91
70103;BME280;57470;50.034;15.256;2023-05-02T03:36:10;99329.31;;;13.64;84.95
70103;BME280;57470;50.034;15.256;2023-05-02T03:38:35;99329.34;;;13.52;85.74
70103;BME280;57470;50.034;15.256;2023-05-02T03:41:01;99330.69;;;13.58;85.56
70103;BME280;57470;50.034;15.256;2023-05-02T03:43:27;99335.28;;;13.56;85.49
70103;BME280;57470;50.034;15.256;2023-05-02T03:45:52;99336.59;;;13.62;85.21
70103;BME280;57470;50.034;15.256;2023-05-02T03:48:18;99332.50;;;13.58;85.27
70103;BME280;57470;50.034;15.256;2023-05-02T03:50:44;99335.31;;;13.45;85.39
70103;BME280;57470;50.034;15.256;2023-05-02T03:53:09;99340.09;;;13.41;85.73
70103;BME280;57470;50.034;15.256;2023-05-02T03:55:39;99346.09;;;13.55;85.17
70103;BME280;57470;50.034;15.256;2023-05-02T03:58:05;99348.22;;;13.40;86.26
70103;BME280;57470;50.034;15.256;2023-05-02T04:00:31;99347.19;;;13.52;85.71
70103;BME280;57470;50.034;15.256;2023-05-02T04:02:56;99347.81;;;13.56;85.68
70103;BME280;57470;50.034;15.256;2023-05-02T04:05:21;99352.91;;;13.59;85.33
70103;BME280;57470;50.034;15.256;2023-05-02T04:07:47;99350.94;;;13.61;85.06
70103;BME280;57470;50.034;15.256;2023-05-02T04:10:12;99357.66;;;13.44;85.47
70103;BME280;57470;50.034;15.256;2023-05-02T04:12:41;99368.34;;;13.55;85.69
70103;BME280;57470;50.034;15.256;2023-05-02T04:15:08;99372.31;;;13.61;85.09
70103;BME280;57470;50.034;15.256;2023-05-02T04:17:34;99369.41;;;13.64;85.38
70103;BME280;57470;50.034;15.256;2023-05-02T04:19:59;99378.88;;;13.68;84.98
70103;BME280;57470;50.034;15.256;2023-05-02T04:22:24;99374.88;;;13.62;85.47
70103;BME280;57470;50.034;15.256;2023-05-02T04:24:50;99379.88;;;13.56;85.27
70103;BME280;57470;50.034;15.256;2023-05-02T04:27:15;99380.13;;;13.52;85.55
70103;BME280;57470;50.034;15.256;2023-05-02T04:29:40;99388.00;;;13.54;85.31
70103;BME280;57470;50.034;15.256;2023-05-02T04:32:06;99389.47;;;13.58;84.96
70103;BME280;57470;50.034;15.256;2023-05-02T04:34:31;99399.56;;;13.55;85.08
70103;BME280;57470;50.034;15.256;2023-05-02T04:36:57;99400.50;;;13.65;84.91
70103;BME280;57470;50.034;15.256;2023-05-02T04:39:22;99406.09;;;13.62;84.92
70103;BME280;57470;50.034;15.256;2023-05-02T04:41:47;99407.78;;;13.63;85.19
70103;BME280;57470;50.034;15.256;2023-05-02T04:44:13;99410.09;;;13.67;84.81
70103;BME280;57470;50.034;15.256;2023-05-02T04:46:39;99401.72;;;13.61;85.19
70103;BME280;57470;50.034;15.256;2023-05-02T04:49:04;99409.81;;;13.70;84.63
70103;BME280;57470;50.034;15.256;2023-05-02T04:51:30;99418.44;;;13.74;84.57
70103;BME280;57470;50.034;15.256;2023-05-02T04:53:56;99419.31;;;13.63;85.10
70103;BME280;57470;50.034;15.256;2023-05-02T04:56:21;99423.94;;;13.61;85.11
70103;BME280;57470;50.034;15.256;2023-05-02T04:58:46;99425.53;;;13.64;84.88
70103;BME280;57470;50.034;15.256;2023-05-02T05:01:12;99424.84;;;13.50;85.21
70103;BME280;57470;50.034;15.256;2023-05-02T05:03:37;99431.50;;;13.56;85.11
70103;BME280;57470;50.034;15.256;2023-05-02T05:06:03;99435.25;;;13.53;85.14
70103;BME280;57470;50.034;15.256;2023-05-02T05:08:28;99438.16;;;13.62;85.32
70103;BME280;57470;50.034;15.256;2023-05-02T05:10:54;99445.19;;;13.63;85.35
70103;BME280;57470;50.034;15.256;2023-05-02T05:13:19;99442.53;;;13.63;85.24
70103;BME280;57470;50.034;15.256;2023-05-02T05:15:46;99439.50;;;13.56;85.10
70103;BME280;57470;50.034;15.256;2023-05-02T05:18:11;99438.91;;;13.52;85.42
70103;BME280;57470;50.034;15.256;2023-05-02T05:20:37;99444.97;;;13.55;84.61
70103;BME280;57470;50.034;15.256;2023-05-02T05:23:02;99448.75;;;13.52;85.95
70103;BME280;57470;50.034;15.256;2023-05-02T05:25:28;99454.81;;;13.65;85.46
70103;BME280;57470;50.034;15.256;2023-05-02T05:27:53;99449.34;;;13.67;85.54
70103;BME280;57470;50.034;15.256;2023-05-02T05:30:21;99454.91;;;13.64;85.69
70103;BME280;57470;50.034;15.256;2023-05-02T05:32:47;99457.34;;;13.67;85.34
70103;BME280;57470;50.034;15.256;2023-05-02T05:35:12;99460.25;;;13.64;85.58
70103;BME280;57470;50.034;15.256;2023-05-02T05:37:38;99463.28;;;13.70;85.24
70103;BME280;57470;50.034;15.256;2023-05-02T05:40:07;99464.22;;;13.80;84.70
70103;BME280;57470;50.034;15.256;2023-05-02T05:42:33;99470.09;;;13.74;85.43
70103;BME280;57470;50.034;15.256;2023-05-02T05:44:58;99473.13;;;13.70;85.04
70103;BME280;57470;50.034;15.256;2023-05-02T05:47:23;99471.19;;;13.72;84.94
70103;BME280;57470;50.034;15.256;2023-05-02T05:49:53;99470.66;;;13.89;85.36
70103;BME280;57470;50.034;15.256;2023-05-02T05:52:18;99474.06;;;13.80;85.40
70103;BME280;57470;50.034;15.256;2023-05-02T05:54:43;99469.66;;;13.58;86.66
70103;BME280;57470;50.034;15.256;2023-05-02T05:57:09;99469.25;;;13.74;86.58
70103;BME280;57470;50.034;15.256;2023-05-02T05:59:34;99476.69;;;13.59;87.88
70103;BME280;57470;50.034;15.256;2023-05-02T06:02:00;99486.69;;;13.89;86.74
70103;BME280;57470;50.034;15.256;2023-05-02T06:04:26;99477.00;;;13.77;86.14
70103;BME280;57470;50.034;15.256;2023-05-02T06:06:51;99483.28;;;13.87;86.31
70103;BME280;57470;50.034;15.256;2023-05-02T06:09:18;99486.81;;;13.87;86.78
70103;BME280;57470;50.034;15.256;2023-05-02T06:11:43;99495.66;;;13.99;86.26
70103;BME280;57470;50.034;15.256;2023-05-02T06:14:09;99491.38;;;14.08;86.71
70103;BME280;57470;50.034;15.256;2023-05-02T06:16:34;99489.41;;;14.21;87.07
70103;BME280;57470;50.034;15.256;2023-05-02T06:19:00;99493.91;;;14.20;86.10
70103;BME280;57470;50.034;15.256;2023-05-02T06:21:26;99503.47;;;14.23;86.10
70103;BME280;57470;50.034;15.256;2023-05-02T06:23:51;99508.69;;;14.24;85.78
70103;BME280;57470;50.034;15.256;2023-05-02T06:26:17;99514.66;;;14.39;85.75
70103;BME280;57470;50.034;15.256;2023-05-02T06:28:42;99511.69;;;14.42;85.21
70103;BME280;57470;50.034;15.256;2023-05-02T06:31:08;99521.44;;;14.43;84.95
70103;BME280;57470;50.034;15.256;2023-05-02T06:33:34;99528.13;;;14.49;85.13
70103;BME280;57470;50.034;15.256;2023-05-02T06:36:01;99529.34;;;14.45;84.68
70103;BME280;57470;50.034;15.256;2023-05-02T06:38:27;99519.38;;;14.36;84.08
70103;BME280;57470;50.034;15.256;2023-05-02T06:40:52;99526.72;;;14.22;83.93
70103;BME280;57470;50.034;15.256;2023-05-02T06:43:18;99532.19;;;14.21;83.97
70103;BME280;57470;50.034;15.256;2023-05-02T06:45:44;99542.00;;;14.32;84.63
70103;BME280;57470;50.034;15.256;2023-05-02T06:48:10;99549.28;;;14.41;84.71
70103;BME280;57470;50.034;15.256;2023-05-02T06:50:36;99548.88;;;14.56;84.48
70103;BME280;57470;50.034;15.256;2023-05-02T06:53:02;99549.28;;;14.41;83.67
70103;BME280;57470;50.034;15.256;2023-05-02T06:55:28;99553.88;;;14.50;83.68
70103;BME280;57470;50.034;15.256;2023-05-02T06:57:54;99558.22;;;14.62;83.70
70103;BME280;57470;50.034;15.256;2023-05-02T07:00:19;99561.69;;;14.42;83.00
70103;BME280;57470;50.034;15.256;2023-05-02T07:02:46;99565.72;;;14.47;84.05
70103;BME280;57470;50.034;15.256;2023-05-02T07:05:12;99566.81;;;14.34;83.77
70103;BME280;57470;50.034;15.256;2023-05-02T07:07:43;99571.19;;;14.46;83.44
70103;BME280;57470;50.034;15.256;2023-05-02T07:10:09;99569.44;;;14.56;83.09
70103;BME280;57470;50.034;15.256;2023-05-02T07:12:36;99566.50;;;14.59;82.97
70103;BME280;57470;50.034;15.256;2023-05-02T07:15:03;99577.03;;;14.72;82.36
70103;BME280;57470;50.034;15.256;2023-05-02T07:17:29;99574.00;;;14.76;83.43
70103;BME280;57470;50.034;15.256;2023-05-02T07:19:54;99580.59;;;14.61;84.26
70103;BME280;57470;50.034;15.256;2023-05-02T07:22:20;99588.47;;;14.74;83.05
70103;BME280;57470;50.034;15.256;2023-05-02T07:24:46;99578.00;;;14.71;83.89
70103;BME280;57470;50.034;15.256;2023-05-02T07:27:11;99576.78;;;14.95;82.40
70103;BME280;57470;50.034;15.256;2023-05-02T07:29:38;99581.22;;;14.85;83.82
70103;BME280;57470;50.034;15.256;2023-05-02T07:32:04;99585.00;;;15.03;81.95
70103;BME280;57470;50.034;15.256;2023-05-02T07:34:31;99591.22;;;15.25;82.49
70103;BME280;57470;50.034;15.256;2023-05-02T07:36:57;99593.00;;;15.35;81.36
70103;BME280;57470;50.034;15.256;2023-05-02T07:39:24;99584.53;;;15.40;80.93
70103;BME280;57470;50.034;15.256;2023-05-02T07:41:52;99594.41;;;15.60;81.74
70103;BME280;57470;50.034;15.256;2023-05-02T07:44:18;99604.16;;;15.61;81.27
70103;BME280;57470;50.034;15.256;2023-05-02T07:46:44;99588.50;;;15.66;80.03
70103;BME280;57470;50.034;15.256;2023-05-02T07:49:09;99592.72;;;15.59;79.31
70103;BME280;57470;50.034;15.256;2023-05-02T07:51:35;99594.50;;;15.80;78.13
70103;BME280;57470;50.034;15.256;2023-05-02T07:54:01;99596.25;;;15.90;78.41
70103;BME280;57470;50.034;15.256;2023-05-02T07:56:26;99597.53;;;15.96;79.40
70103;BME280;57470;50.034;15.256;2023-05-02T07:58:52;99597.75;;;16.23;78.07
70103;BME280;57470;50.034;15.256;2023-05-02T08:01:17;99601.72;;;16.38;77.25
70103;BME280;57470;50.034;15.256;2023-05-02T08:03:43;99599.50;;;16.43;77.16
70103;BME280;57470;50.034;15.256;2023-05-02T08:06:09;99593.28;;;16.52;77.59
70103;BME280;57470;50.034;15.256;2023-05-02T08:08:35;99590.84;;;16.30;77.39
70103;BME280;57470;50.034;15.256;2023-05-02T08:11:00;99603.63;;;16.67;77.76
70103;BME280;57470;50.034;15.256;2023-05-02T08:13:26;99603.31;;;16.50;77.00
70103;BME280;57470;50.034;15.256;2023-05-02T08:15:51;99609.84;;;16.67;77.08
70103;BME280;57470;50.034;15.256;2023-05-02T08:18:24;99607.00;;;16.00;78.69
70103;BME280;57470;50.034;15.256;2023-05-02T08:20:50;99613.75;;;16.34;80.24
70103;BME280;57470;50.034;15.256;2023-05-02T08:23:16;99615.50;;;16.93;75.45
70103;BME280;57470;50.034;15.256;2023-05-02T08:25:41;99614.66;;;17.21;74.55
70103;BME280;57470;50.034;15.256;2023-05-02T08:28:06;99615.81;;;17.00;75.58
70103;BME280;57470;50.034;15.256;2023-05-02T08:30:32;99619.00;;;17.32;73.99
70103;BME280;57470;50.034;15.256;2023-05-02T08:32:57;99620.38;;;17.55;72.87
70103;BME280;57470;50.034;15.256;2023-05-02T08:35:23;99620.09;;;17.49;72.15
70103;BME280;57470;50.034;15.256;2023-05-02T08:37:48;99618.38;;;17.67;71.93
70103;BME280;57470;50.034;15.256;2023-05-02T08:40:16;99623.78;;;17.67;71.58
70103;BME280;57470;50.034;15.256;2023-05-02T08:42:42;99628.34;;;17.38;71.57
70103;BME280;57470;50.034;15.256;2023-05-02T08:45:11;99619.13;;;17.40;72.43
70103;BME280;57470;50.034;15.256;2023-05-02T08:47:39;99621.44;;;17.35;72.93
70103;BME280;57470;50.034;15.256;2023-05-02T08:50:05;99628.28;;;17.57;73.54
70103;BME280;57470;50.034;15.256;2023-05-02T08:52:31;99628.22;;;17.30;71.84
70103;BME280;57470;50.034;15.256;2023-05-02T08:54:57;99635.13;;;17.42;72.80
70103;BME280;57470;50.034;15.256;2023-05-02T08:57:25;99636.09;;;17.50;72.19
70103;BME280;57470;50.034;15.256;2023-05-02T08:59:52;99639.91;;;17.48;72.40
70103;BME280;57470;50.034;15.256;2023-05-02T09:02:55;99649.13;;;17.45;71.67
70103;BME280;57470;50.034;15.256;2023-05-02T09:05:26;99647.88;;;17.40;71.38
70103;BME280;57470;50.034;15.256;2023-05-02T09:07:51;99647.47;;;17.35;71.39
70103;BME280;57470;50.034;15.256;2023-05-02T09:10:17;99646.50;;;17.16;71.80
70103;BME280;57470;50.034;15.256;2023-05-02T09:12:42;99647.75;;;17.12;72.77
70103;BME280;57470;50.034;15.256;2023-05-02T09:15:15;99656.66;;;17.13;71.61
70103;BME280;57470;50.034;15.256;2023-05-02T09:17:44;99655.22;;;17.38;72.79
70103;BME280;57470;50.034;15.256;2023-05-02T09:20:11;99653.66;;;17.45;72.11
70103;BME280;57470;50.034;15.256;2023-05-02T09:22:37;99655.78;;;17.51;71.54
70103;BME280;57470;50.034;15.256;2023-05-02T09:25:05;99660.84;;;17.54;71.38
70103;BME280;57470;50.034;15.256;2023-05-02T09:27:48;99666.94;;;17.56;70.19
70103;BME280;57470;50.034;15.256;2023-05-02T09:30:23;99660.69;;;17.75;69.17
70103;BME280;57470;50.034;15.256;2023-05-02T09:32:49;99662.69;;;17.73;68.81
70103;BME280;57470;50.034;15.256;2023-05-02T09:35:16;99658.03;;;17.65;69.86
70103;BME280;57470;50.034;15.256;2023-05-02T09:37:52;99668.44;;;17.97;69.17
70103;BME280;57470;50.034;15.256;2023-05-02T09:40:18;99669.72;;;17.93;68.32
70103;BME280;57470;50.034;15.256;2023-05-02T09:42:44;99659.00;;;18.11;69.08
70103;BME280;57470;50.034;15.256;2023-05-02T09:45:19;99665.19;;;18.21;68.09
70103;BME280;57470;50.034;15.256;2023-05-02T09:47:44;99672.38;;;18.03;67.80
70103;BME280;57470;50.034;15.256;2023-05-02T09:50:09;99671.19;;;18.15;68.29
70103;BME280;57470;50.034;15.256;2023-05-02T09:52:35;99672.00;;;18.25;68.03
70103;BME280;57470;50.034;15.256;2023-05-02T09:55:01;99673.38;;;18.29;67.90
70103;BME280;57470;50.034;15.256;2023-05-02T09:57:44;99673.25;;;18.30;67.87
70103;BME280;57470;50.034;15.256;2023-05-02T10:00:10;99678.88;;;18.00;67.28
70103;BME280;57470;50.034;15.256;2023-05-02T10:02:35;99677.63;;;18.31;68.81
70103;BME280;57470;50.034;15.256;2023-05-02T10:05:02;99677.53;;;18.51;68.89
70103;BME280;57470;50.034;15.256;2023-05-02T10:07:32;99687.03;;;18.45;65.71
70103;BME280;57470;50.034;15.256;2023-05-02T10:09:59;99685.81;;;18.40;65.33
70103;BME280;57470;50.034;15.256;2023-05-02T10:12:28;99686.66;;;18.40;66.28
70103;BME280;57470;50.034;15.256;2023-05-02T10:14:59;99688.75;;;18.46;66.91
70103;BME280;57470;50.034;15.256;2023-05-02T10:17:30;99691.94;;;18.32;66.57
70103;BME280;57470;50.034;15.256;2023-05-02T10:20:00;99685.38;;;18.34;65.87
70103;BME280;57470;50.034;15.256;2023-05-02T10:22:28;99689.03;;;18.16;67.46
70103;BME280;57470;50.034;15.256;2023-05-02T10:24:57;99691.63;;;18.35;67.35
70103;BME280;57470;50.034;15.256;2023-05-02T10:27:24;99699.22;;;18.49;66.97
70103;BME280;57470;50.034;15.256;2023-05-02T10:29:50;99698.59;;;18.28;66.86
70103;BME280;57470;50.034;15.256;2023-05-02T10:32:17;99702.00;;;18.30;66.35
70103;BME280;57470;50.034;15.256;2023-05-02T10:34:42;99703.66;;;18.41;66.58
70103;BME280;57470;50.034;15.256;2023-05-02T10:37:08;99702.44;;;18.25;66.37
70103;BME280;57470;50.034;15.256;2023-05-02T10:39:33;99703.16;;;18.82;65.74
70103;BME280;57470;50.034;15.256;2023-05-02T10:42:00;99700.38;;;18.74;65.99
70103;BME280;57470;50.034;15.256;2023-05-02T10:44:38;99694.53;;;18.51;67.27
70103;BME280;57470;50.034;15.256;2023-05-02T10:47:23;99702.41;;;18.90;67.08
70103;BME280;57470;50.034;15.256;2023-05-02T10:49:59;99702.47;;;18.98;66.61
70103;BME280;57470;50.034;15.256;2023-05-02T10:55:21;99700.19;;;19.03;64.08
70103;BME280;57470;50.034;15.256;2023-05-02T11:00:24;99702.34;;;19.17;64.55
70103;BME280;57470;50.034;15.256;2023-05-02T11:02:50;99697.88;;;19.26;64.31
70103;BME280;57470;50.034;15.256;2023-05-02T11:05:15;99694.59;;;19.50;65.02
70103;BME280;57470;50.034;15.256;2023-05-02T11:07:41;99705.94;;;19.43;65.57
70103;BME280;57470;50.034;15.256;2023-05-02T11:12:47;99701.47;;;19.96;64.78
70103;BME280;57470;50.034;15.256;2023-05-02T11:15:14;99701.00;;;19.74;65.50
70103;BME280;57470;50.034;15.256;2023-05-02T11:20:28;99701.75;;;20.10;65.51
70103;BME280;57470;50.034;15.256;2023-05-02T11:25:56;99701.88;;;19.57;63.41
70103;BME280;57470;50.034;15.256;2023-05-02T11:31:04;99702.91;;;19.82;65.75
70103;BME280;57470;50.034;15.256;2023-05-02T11:33:30;99707.91;;;19.95;63.23
70103;BME280;57470;50.034;15.256;2023-05-02T11:35:55;99690.41;;;19.20;65.12
70103;BME280;57470;50.034;15.256;2023-05-02T11:38:22;99698.81;;;19.78;64.71
70103;BME280;57470;50.034;15.256;2023-05-02T11:40:57;99701.28;;;20.23;64.60
70103;BME280;57470;50.034;15.256;2023-05-02T11:43:24;99700.25;;;19.46;68.88
70103;BME280;57470;50.034;15.256;2023-05-02T11:45:51;99704.13;;;19.88;63.11
70103;BME280;57470;50.034;15.256;2023-05-02T11:48:18;99700.34;;;20.06;62.65
70103;BME280;57470;50.034;15.256;2023-05-02T11:50:49;99694.66;;;20.09;61.70
70103;BME280;57470;50.034;15.256;2023-05-02T11:53:20;99698.34;;;20.08;62.25
70103;BME280;57470;50.034;15.256;2023-05-02T11:55:51;99700.63;;;20.21;61.99
70103;BME280;57470;50.034;15.256;2023-05-02T11:58:19;99704.72;;;20.33;61.04
70103;BME280;57470;50.034;15.256;2023-05-02T12:00:46;99704.59;;;20.35;60.68
70103;BME280;57470;50.034;15.256;2023-05-02T12:03:32;99700.06;;;20.43;59.82
70103;BME280;57470;50.034;15.256;2023-05-02T12:06:09;99699.53;;;20.74;59.87
70103;BME280;57470;50.034;15.256;2023-05-02T12:08:35;99697.81;;;20.65;59.21
70103;BME280;57470;50.034;15.256;2023-05-02T12:11:01;99695.13;;;20.73;60.42
70103;BME280;57470;50.034;15.256;2023-05-02T12:13:27;99696.91;;;20.48;57.94
70103;BME280;57470;50.034;15.256;2023-05-02T12:15:54;99694.25;;;20.64;59.62
70103;BME280;57470;50.034;15.256;2023-05-02T12:18:21;99698.81;;;20.72;61.19
70103;BME280;57470;50.034;15.256;2023-05-02T12:20:49;99700.00;;;20.77;60.54
70103;BME280;57470;50.034;15.256;2023-05-02T12:23:17;99696.84;;;20.82;58.12
70103;BME280;57470;50.034;15.256;2023-05-02T12:25:42;99699.91;;;20.95;57.32
70103;BME280;57470;50.034;15.256;2023-05-02T12:28:08;99701.88;;;20.85;55.76
70103;BME280;57470;50.034;15.256;2023-05-02T12:30:36;99704.09;;;20.13;59.93
70103;BME280;57470;50.034;15.256;2023-05-02T12:33:06;99697.41;;;21.02;57.37
70103;BME280;57470;50.034;15.256;2023-05-02T12:35:32;99700.47;;;21.23;56.78
70103;BME280;57470;50.034;15.256;2023-05-02T12:40:34;99705.41;;;21.44;55.91
70103;BME280;57470;50.034;15.256;2023-05-02T12:43:01;99704.22;;;21.54;54.21
70103;BME280;57470;50.034;15.256;2023-05-02T12:45:32;99695.09;;;21.63;56.42
70103;BME280;57470;50.034;15.256;2023-05-02T12:48:16;99712.00;;;21.98;55.64
70103;BME280;57470;50.034;15.256;2023-05-02T12:50:42;99705.16;;;21.05;57.85
70103;BME280;57470;50.034;15.256;2023-05-02T12:53:08;99706.19;;;20.53;58.69
70103;BME280;57470;50.034;15.256;2023-05-02T12:55:33;99704.66;;;20.51;59.42
70103;BME280;57470;50.034;15.256;2023-05-02T12:58:04;99711.41;;;21.13;57.11
70103;BME280;57470;50.034;15.256;2023-05-02T13:00:31;99706.41;;;21.43;56.39
70103;BME280;57470;50.034;15.256;2023-05-02T13:02:57;99705.75;;;21.65;55.33
70103;BME280;57470;50.034;15.256;2023-05-02T13:05:23;99709.94;;;21.84;55.48
70103;BME280;57470;50.034;15.256;2023-05-02T13:07:49;99711.97;;;21.65;55.80
70103;BME280;57470;50.034;15.256;2023-05-02T13:10:14;99717.25;;;21.59;55.30
70103;BME280;57470;50.034;15.256;2023-05-02T13:12:42;99717.50;;;20.49;56.11
70103;BME280;57470;50.034;15.256;2023-05-02T13:15:08;99713.47;;;20.27;55.67
70103;BME280;57470;50.034;15.256;2023-05-02T13:17:34;99723.59;;;20.25;55.74
70103;BME280;57470;50.034;15.256;2023-05-02T13:19:59;99722.81;;;20.07;55.79
70103;BME280;57470;50.034;15.256;2023-05-02T13:22:26;99730.56;;;20.02;55.71
70103;BME280;57470;50.034;15.256;2023-05-02T13:24:52;99729.84;;;19.74;56.39
70103;BME280;57470;50.034;15.256;2023-05-02T13:27:17;99731.59;;;19.83;55.60
70103;BME280;57470;50.034;15.256;2023-05-02T13:29:44;99731.69;;;19.73;55.87
70103;BME280;57470;50.034;15.256;2023-05-02T13:32:09;99735.47;;;19.63;55.86
70103;BME280;57470;50.034;15.256;2023-05-02T13:34:35;99732.13;;;19.86;57.16
70103;BME280;57470;50.034;15.256;2023-05-02T13:37:00;99735.94;;;19.76;57.35